sensor_id;sensor_type;location;lat;lon;timestamp;temperature;humidity
23744;DHT22;12052;53.478;10.182;2023-04-24T00:00:09;12.00;99.90
23744;DHT22;12052;53.478;10.182;2023-04-24T00:02:35;12.00;99.90
23744;DHT22;12052;53.478;10.182;2023-04-24T00:05:04;12.00;99.90
23744;DHT22;12052;53.478;10.182;2023-04-24T00:07:31;12.00;99.90
23744;DHT22;12052;53.478;10.182;2023-04-24T00:09:57;12.00;99.90
23744;DHT22;12052;53.478;10.182;2023-04-24T00:12:23;12.00;99.90
23744;DHT22;12052;53.478;10.182;2023-04-24T00:14:49;12.00;99.90
23744;DHT22;12052;53.478;10.182;2023-04-24T00:17:14;11.90;99.90
23744;DHT22;12052;53.478;10.182;2023-04-24T00:19:40;12.00;99.90
23744;DHT22;12052;53.478;10.182;2023-04-24T00:22:06;12.00;99.90
23744;DHT22;12052;53.478;10.182;2023-04-24T00:24:31;12.00;99.90
23744;DHT22;12052;53.478;10.182;2023-04-24T00:26:57;12.00;99.90
23744;DHT22;12052;53.478;10.182;2023-04-24T00:29:23;12.00;99.90
23744;DHT22;12052;53.478;10.182;2023-04-24T00:31:48;11.90;99.90
23744;DHT22;12052;53.478;10.182;2023-04-24T00:34:14;11.90;99.90
23744;DHT22;12052;53.478;10.182;2023-04-24T00:36:40;11.90;99.90
23744;DHT22;12052;53.478;10.182;2023-04-24T00:39:05;11.90;99.90
23744;DHT22;12052;53.478;10.182;2023-04-24T00:41:34;11.90;99.90
23744;DHT22;12052;53.478;10.182;2023-04-24T00:43:59;11.90;99.90
23744;DHT22;12052;53.478;10.182;2023-04-24T00:46:25;11.90;99.90
23744;DHT22;12052;53.478;10.182;2023-04-24T00:48:51;11.90;99.90
23744;DHT22;12052;53.478;10.182;2023-04-24T00:51:17;11.80;99.90
23744;DHT22;12052;53.478;10.182;2023-04-24T00:53:43;11.90;99.90
23744;DHT22;12052;53.478;10.182;2023-04-24T00:56:09;11.80;99.90
23744;DHT22;12052;53.478;10.182;2023-04-24T00:58:35;11.90;99.90
23744;DHT22;12052;53.478;10.182;2023-04-24T01:01:01;11.80;99.90
23744;DHT22;12052;53.478;10.182;2023-04-24T01:03:29;11.80;99.90
23744;DHT22;12052;53.478;10.182;2023-04-24T01:05:56;11.80;99.90
23744;DHT22;12052;53.478;10.182;2023-04-24T01:08:23;11.80;99.90
23744;DHT22;12052;53.478;10.182;2023-04-24T01:10:51;11.80;99.90
23744;DHT22;12052;53.478;10.182;2023-04-24T01:13:17;11.80;99.90
23744;DHT22;12052;53.478;10.182;2023-04-24T01:15:43;11.80;99.90
23744;DHT22;12052;53.478;10.182;2023-04-24T01:18:09;11.80;99.90
23744;DHT22;12052;53.478;10.182;2023-04-24T01:20:35;11.90;99.90
23744;DHT22;12052;53.478;10.182;2023-04-24T01:23:02;11.80;99.90
23744;DHT22;12052;53.478;10.182;2023-04-24T01:25:28;11.80;99.90
23744;DHT22;12052;53.478;10.182;2023-04-24T01:27:54;11.80;99.90
23744;DHT22;12052;53.478;10.182;2023-04-24T01:30:19;11.80;99.90
23744;DHT22;12052;53.478;10.182;2023-04-24T01:32:45;11.70;99.90
23744;DHT22;12052;53.478;10.182;2023-04-24T01:35:11;11.70;99.90
23744;DHT22;12052;53.478;10.182;2023-04-24T01:37:36;11.70;99.90
23744;DHT22;12052;53.478;10.182;2023-04-24T01:40:06;11.70;99.90
23744;DHT22;12052;53.478;10.182;2023-04-24T01:42:32;11.70;99.90
23744;DHT22;12052;53.478;10.182;2023-04-24T01:44:58;11.70;99.90
23744;DHT22;12052;53.478;10.182;2023-04-24T01:47:25;11.60;99.90
23744;DHT22;12052;53.478;10.182;2023-04-24T01:49:51;11.60;99.90
23744;DHT22;12052;53.478;10.182;2023-04-24T01:52:17;11.60;99.90
23744;DHT22;12052;53.478;10.182;2023-04-24T01:54:44;11.50;99.90
23744;DHT22;12052;53.478;10.182;2023-04-24T01:57:10;11.40;99.90
23744;DHT22;12052;53.478;10.182;2023-04-24T01:59:36;11.40;99.90
23744;DHT22;12052;53.478;10.182;2023-04-24T02:02:02;11.30;99.90
23744;DHT22;12052;53.478;10.182;2023-04-24T02:04:28;11.30;99.90
23744;DHT22;12052;53.478;10.182;2023-04-24T02:06:53;11.30;99.90
23744;DHT22;12052;53.478;10.182;2023-04-24T02:09:19;11.20;99.90
23744;DHT22;12052;53.478;10.182;2023-04-24T02:11:45;11.10;99.90
23744;DHT22;12052;53.478;10.182;2023-04-24T02:14:10;11.10;99.90
23744;DHT22;12052;53.478;10.182;2023-04-24T02:16:36;11.00;99.90
23744;DHT22;12052;53.478;10.182;2023-04-24T02:19:02;11.00;99.90
23744;DHT22;12052;53.478;10.182;2023-04-24T02:21:28;10.90;99.90
23744;DHT22;12052;53.478;10.182;2023-04-24T02:23:54;10.90;99.90
23744;DHT22;12052;53.478;10.182;2023-04-24T02:26:20;10.90;99.90
23744;DHT22;12052;53.478;10.182;2023-04-24T02:28:45;10.90;99.90
23744;DHT22;12052;53.478;10.182;2023-04-24T02:31:11;10.90;99.90
23744;DHT22;12052;53.478;10.182;2023-04-24T02:33:36;10.90;99.90
23744;DHT22;12052;53.478;10.182;2023-04-24T02:36:02;10.90;99.90
23744;DHT22;12052;53.478;10.182;2023-04-24T02:38:29;11.00;99.90
23744;DHT22;12052;53.478;10.182;2023-04-24T02:40:55;11.00;99.90
23744;DHT22;12052;53.478;10.182;2023-04-24T02:43:20;11.00;99.90
23744;DHT22;12052;53.478;10.182;2023-04-24T02:45:46;11.10;99.90
23744;DHT22;12052;53.478;10.182;2023-04-24T02:48:12;11.00;99.90
23744;DHT22;12052;53.478;10.182;2023-04-24T02:50:37;11.00;99.90
23744;DHT22;12052;53.478;10.182;2023-04-24T02:53:03;11.00;99.90
23744;DHT22;12052;53.478;10.182;2023-04-24T02:55:29;10.90;99.90
23744;DHT22;12052;53.478;10.182;2023-04-24T02:57:54;10.90;99.90
23744;DHT22;12052;53.478;10.182;2023-04-24T03:00:20;10.90;99.90
23744;DHT22;12052;53.478;10.182;2023-04-24T03:02:46;10.90;99.90
23744;DHT22;12052;53.478;10.182;2023-04-24T03:05:11;11.00;99.90
23744;DHT22;12052;53.478;10.182;2023-04-24T03:07:37;10.90;99.90
23744;DHT22;12052;53.478;10.182;2023-04-24T03:10:04;11.00;99.90
23744;DHT22;12052;53.478;10.182;2023-04-24T03:12:31;10.90;99.90
23744;DHT22;12052;53.478;10.182;2023-04-24T03:14:56;10.90;99.90
23744;DHT22;12052;53.478;10.182;2023-04-24T03:17:22;10.90;99.90
23744;DHT22;12052;53.478;10.182;2023-04-24T03:19:47;10.90;99.90
23744;DHT22;12052;53.478;10.182;2023-04-24T03:22:13;10.90;99.90
23744;DHT22;12052;53.478;10.182;2023-04-24T03:24:38;10.80;99.90
23744;DHT22;12052;53.478;10.182;2023-04-24T03:27:04;10.80;99.90
23744;DHT22;12052;53.478;10.182;2023-04-24T03:29:30;10.80;99.90
23744;DHT22;12052;53.478;10.182;2023-04-24T03:31:55;10.80;99.90
23744;DHT22;12052;53.478;10.182;2023-04-24T03:34:21;10.80;99.90
23744;DHT22;12052;53.478;10.182;2023-04-24T03:36:46;10.80;99.90
23744;DHT22;12052;53.478;10.182;2023-04-24T03:39:15;10.80;99.90
23744;DHT22;12052;53.478;10.182;2023-04-24T03:41:41;10.80;99.90
23744;DHT22;12052;53.478;10.182;2023-04-24T03:44:06;10.80;99.90
23744;DHT22;12052;53.478;10.182;2023-04-24T03:46:32;10.80;99.90
23744;DHT22;12052;53.478;10.182;2023-04-24T03:48:57;10.70;99.90
23744;DHT22;12052;53.478;10.182;2023-04-24T03:51:23;10.70;99.90
23744;DHT22;12052;53.478;10.182;2023-04-24T03:53:49;10.70;99.90
23744;DHT22;12052;53.478;10.182;2023-04-24T03:56:15;10.60;99.90
23744;DHT22;12052;53.478;10.182;2023-04-24T03:58:40;10.60;99.90
23744;DHT22;12052;53.478;10.182;2023-04-24T04:01:06;10.60;99.90
23744;DHT22;12052;53.478;10.182;2023-04-24T04:03:31;10.50;99.90
23744;DHT22;12052;53.478;10.182;2023-04-24T04:05:57;10.50;99.90
23744;DHT22;12052;53.478;10.182;2023-04-24T04:08:23;10.40;99.90
23744;DHT22;12052;53.478;10.182;2023-04-24T04:10:48;10.40;99.90
23744;DHT22;12052;53.478;10.182;2023-04-24T04:13:14;10.40;99.90
23744;DHT22;12052;53.478;10.182;2023-04-24T04:15:40;10.40;99.90
23744;DHT22;12052;53.478;10.182;2023-04-24T04:18:06;10.30;99.90
23744;DHT22;12052;53.478;10.182;2023-04-24T04:20:31;10.30;99.90
23744;DHT22;12052;53.478;10.182;2023-04-24T04:22:57;10.20;99.90
23744;DHT22;12052;53.478;10.182;2023-04-24T04:25:22;10.20;99.90
23744;DHT22;12052;53.478;10.182;2023-04-24T04:27:48;10.20;99.90
23744;DHT22;12052;53.478;10.182;2023-04-24T04:30:14;10.10;99.90
23744;DHT22;12052;53.478;10.182;2023-04-24T04:32:40;10.10;99.90
23744;DHT22;12052;53.478;10.182;2023-04-24T04:35:06;10.10;99.90
23744;DHT22;12052;53.478;10.182;2023-04-24T04:37:34;10.10;99.90
23744;DHT22;12052;53.478;10.182;2023-04-24T04:40:00;10.10;99.90
23744;DHT22;12052;53.478;10.182;2023-04-24T04:42:26;10.10;99.90
23744;DHT22;12052;53.478;10.182;2023-04-24T04:44:53;10.10;99.90
23744;DHT22;12052;53.478;10.182;2023-04-24T04:47:20;10.10;99.90
23744;DHT22;12052;53.478;10.182;2023-04-24T04:49:48;10.10;99.90
23744;DHT22;12052;53.478;10.182;2023-04-24T04:52:13;10.10;99.90
23744;DHT22;12052;53.478;10.182;2023-04-24T04:54:39;10.10;99.90
23744;DHT22;12052;53.478;10.182;2023-04-24T04:57:05;10.10;99.90
23744;DHT22;12052;53.478;10.182;2023-04-24T04:59:31;10.10;99.90
23744;DHT22;12052;53.478;10.182;2023-04-24T05:01:56;10.10;99.90
23744;DHT22;12052;53.478;10.182;2023-04-24T05:04:22;10.10;99.90
23744;DHT22;12052;53.478;10.182;2023-04-24T05:06:47;10.10;99.90
23744;DHT22;12052;53.478;10.182;2023-04-24T05:09:13;10.10;99.90
23744;DHT22;12052;53.478;10.182;2023-04-24T05:11:38;10.20;99.90
23744;DHT22;12052;53.478;10.182;2023-04-24T05:14:04;10.20;99.90
23744;DHT22;12052;53.478;10.182;2023-04-24T05:16:30;10.20;99.90
23744;DHT22;12052;53.478;10.182;2023-04-24T05:18:56;10.30;99.90
23744;DHT22;12052;53.478;10.182;2023-04-24T05:21:21;10.40;99.90
23744;DHT22;12052;53.478;10.182;2023-04-24T05:23:47;10.40;99.90
23744;DHT22;12052;53.478;10.182;2023-04-24T05:26:13;10.50;99.90
23744;DHT22;12052;53.478;10.182;2023-04-24T05:28:39;10.60;99.90
23744;DHT22;12052;53.478;10.182;2023-04-24T05:31:04;10.60;99.90
23744;DHT22;12052;53.478;10.182;2023-04-24T05:33:30;10.60;99.90
23744;DHT22;12052;53.478;10.182;2023-04-24T05:35:56;10.70;99.90
23744;DHT22;12052;53.478;10.182;2023-04-24T05:38:21;10.70;99.90
23744;DHT22;12052;53.478;10.182;2023-04-24T05:40:47;10.80;99.90
23744;DHT22;12052;53.478;10.182;2023-04-24T05:43:13;10.80;99.90
23744;DHT22;12052;53.478;10.182;2023-04-24T05:45:38;10.90;99.90
23744;DHT22;12052;53.478;10.182;2023-04-24T05:48:04;11.00;99.90
23744;DHT22;12052;53.478;10.182;2023-04-24T05:50:31;11.00;99.90
23744;DHT22;12052;53.478;10.182;2023-04-24T05:52:56;11.10;99.90
23744;DHT22;12052;53.478;10.182;2023-04-24T05:55:25;11.20;99.90
23744;DHT22;12052;53.478;10.182;2023-04-24T05:57:51;11.50;99.90
23744;DHT22;12052;53.478;10.182;2023-04-24T06:00:17;11.80;99.90
23744;DHT22;12052;53.478;10.182;2023-04-24T06:02:44;12.00;99.90
23744;DHT22;12052;53.478;10.182;2023-04-24T06:05:10;12.10;99.90
23744;DHT22;12052;53.478;10.182;2023-04-24T06:07:36;12.30;99.90
23744;DHT22;12052;53.478;10.182;2023-04-24T06:10:02;12.60;99.90
23744;DHT22;12052;53.478;10.182;2023-04-24T06:12:27;12.70;99.90
23744;DHT22;12052;53.478;10.182;2023-04-24T06:14:53;12.80;99.90
23744;DHT22;12052;53.478;10.182;2023-04-24T06:17:20;13.00;99.90
23744;DHT22;12052;53.478;10.182;2023-04-24T06:19:46;13.10;99.90
23744;DHT22;12052;53.478;10.182;2023-04-24T06:22:12;13.20;99.90
23744;DHT22;12052;53.478;10.182;2023-04-24T06:24:39;13.30;99.90
23744;DHT22;12052;53.478;10.182;2023-04-24T06:27:04;13.20;99.90
23744;DHT22;12052;53.478;10.182;2023-04-24T06:29:30;13.20;99.90
23744;DHT22;12052;53.478;10.182;2023-04-24T06:31:56;13.20;99.90
23744;DHT22;12052;53.478;10.182;2023-04-24T06:34:21;13.40;99.90
23744;DHT22;12052;53.478;10.182;2023-04-24T06:36:47;13.30;99.90
23744;DHT22;12052;53.478;10.182;2023-04-24T06:39:12;13.20;99.90
23744;DHT22;12052;53.478;10.182;2023-04-24T06:41:38;13.30;99.90
23744;DHT22;12052;53.478;10.182;2023-04-24T06:44:05;13.50;99.90
23744;DHT22;12052;53.478;10.182;2023-04-24T06:46:31;13.40;99.90
23744;DHT22;12052;53.478;10.182;2023-04-24T06:48:56;13.50;99.90
23744;DHT22;12052;53.478;10.182;2023-04-24T06:51:26;13.60;99.90
23744;DHT22;12052;53.478;10.182;2023-04-24T06:53:53;13.70;99.90
23744;DHT22;12052;53.478;10.182;2023-04-24T06:56:19;13.70;99.90
23744;DHT22;12052;53.478;10.182;2023-04-24T06:58:45;13.80;99.90
23744;DHT22;12052;53.478;10.182;2023-04-24T07:01:11;13.80;99.90
23744;DHT22;12052;53.478;10.182;2023-04-24T07:03:37;13.80;99.90
23744;DHT22;12052;53.478;10.182;2023-04-24T07:06:03;13.80;99.90
23744;DHT22;12052;53.478;10.182;2023-04-24T07:08:29;13.90;99.90
23744;DHT22;12052;53.478;10.182;2023-04-24T07:10:56;13.90;99.90
23744;DHT22;12052;53.478;10.182;2023-04-24T07:13:22;13.70;99.90
23744;DHT22;12052;53.478;10.182;2023-04-24T07:15:48;13.80;99.90
23744;DHT22;12052;53.478;10.182;2023-04-24T07:18:16;13.90;99.90
23744;DHT22;12052;53.478;10.182;2023-04-24T07:20:42;13.90;99.90
23744;DHT22;12052;53.478;10.182;2023-04-24T07:23:07;14.20;99.90
23744;DHT22;12052;53.478;10.182;2023-04-24T07:25:33;14.40;99.90
23744;DHT22;12052;53.478;10.182;2023-04-24T07:27:59;14.40;99.90
23744;DHT22;12052;53.478;10.182;2023-04-24T07:30:24;14.10;99.90
23744;DHT22;12052;53.478;10.182;2023-04-24T07:32:50;13.90;99.90
23744;DHT22;12052;53.478;10.182;2023-04-24T07:35:16;13.90;99.90
23744;DHT22;12052;53.478;10.182;2023-04-24T07:37:41;14.00;99.90
23744;DHT22;12052;53.478;10.182;2023-04-24T07:40:12;14.00;99.90
23744;DHT22;12052;53.478;10.182;2023-04-24T07:42:38;14.30;99.90
23744;DHT22;12052;53.478;10.182;2023-04-24T07:45:04;14.60;99.90
23744;DHT22;12052;53.478;10.182;2023-04-24T07:47:30;14.60;99.90
23744;DHT22;12052;53.478;10.182;2023-04-24T07:49:55;14.80;99.90
23744;DHT22;12052;53.478;10.182;2023-04-24T07:52:21;14.70;99.90
23744;DHT22;12052;53.478;10.182;2023-04-24T07:54:47;14.50;99.90
23744;DHT22;12052;53.478;10.182;2023-04-24T07:57:12;14.40;99.90
23744;DHT22;12052;53.478;10.182;2023-04-24T07:59:39;14.70;99.90
23744;DHT22;12052;53.478;10.182;2023-04-24T08:02:04;15.00;99.90
23744;DHT22;12052;53.478;10.182;2023-04-24T08:04:31;15.00;99.90
23744;DHT22;12052;53.478;10.182;2023-04-24T08:06:57;15.00;99.90
23744;DHT22;12052;53.478;10.182;2023-04-24T08:09:22;14.60;99.90
23744;DHT22;12052;53.478;10.182;2023-04-24T08:11:48;14.40;99.90
23744;DHT22;12052;53.478;10.182;2023-04-24T08:14:14;14.50;99.90
23744;DHT22;12052;53.478;10.182;2023-04-24T08:16:40;14.30;99.90
23744;DHT22;12052;53.478;10.182;2023-04-24T08:19:06;14.30;99.90
23744;DHT22;12052;53.478;10.182;2023-04-24T08:21:32;14.30;99.90
23744;DHT22;12052;53.478;10.182;2023-04-24T08:23:57;14.10;99.90
23744;DHT22;12052;53.478;10.182;2023-04-24T08:26:23;14.20;99.90
23744;DHT22;12052;53.478;10.182;2023-04-24T08:28:49;13.90;99.90
23744;DHT22;12052;53.478;10.182;2023-04-24T08:31:14;13.90;99.90
23744;DHT22;12052;53.478;10.182;2023-04-24T08:33:40;13.90;99.90
23744;DHT22;12052;53.478;10.182;2023-04-24T08:36:06;14.20;99.90
23744;DHT22;12052;53.478;10.182;2023-04-24T08:38:33;14.10;99.90
23744;DHT22;12052;53.478;10.182;2023-04-24T08:41:00;14.40;99.90
23744;DHT22;12052;53.478;10.182;2023-04-24T08:43:26;14.70;99.90
23744;DHT22;12052;53.478;10.182;2023-04-24T08:45:53;14.90;99.90
23744;DHT22;12052;53.478;10.182;2023-04-24T08:48:22;14.90;99.90
23744;DHT22;12052;53.478;10.182;2023-04-24T08:50:50;15.30;99.90
23744;DHT22;12052;53.478;10.182;2023-04-24T08:53:17;15.10;99.90
23744;DHT22;12052;53.478;10.182;2023-04-24T08:55:43;14.80;99.90
23744;DHT22;12052;53.478;10.182;2023-04-24T08:58:12;14.60;99.90
23744;DHT22;12052;53.478;10.182;2023-04-24T09:00:39;14.30;99.90
23744;DHT22;12052;53.478;10.182;2023-04-24T09:03:05;14.40;99.90
23744;DHT22;12052;53.478;10.182;2023-04-24T09:05:32;14.20;99.90
23744;DHT22;12052;53.478;10.182;2023-04-24T09:07:59;14.20;99.90
23744;DHT22;12052;53.478;10.182;2023-04-24T09:10:26;14.30;99.90
23744;DHT22;12052;53.478;10.182;2023-04-24T09:12:54;14.20;99.90
23744;DHT22;12052;53.478;10.182;2023-04-24T09:15:20;14.10;99.90
23744;DHT22;12052;53.478;10.182;2023-04-24T09:17:46;14.00;99.90
23744;DHT22;12052;53.478;10.182;2023-04-24T09:20:12;14.10;99.90
23744;DHT22;12052;53.478;10.182;2023-04-24T09:22:38;14.10;99.90
23744;DHT22;12052;53.478;10.182;2023-04-24T09:25:06;13.90;99.90
23744;DHT22;12052;53.478;10.182;2023-04-24T09:27:33;13.90;99.90
23744;DHT22;12052;53.478;10.182;2023-04-24T09:30:00;13.90;99.90
23744;DHT22;12052;53.478;10.182;2023-04-24T09:32:26;13.80;99.90
23744;DHT22;12052;53.478;10.182;2023-04-24T09:37:44;13.70;99.90
23744;DHT22;12052;53.478;10.182;2023-04-24T09:40:15;13.70;99.90
23744;DHT22;12052;53.478;10.182;2023-04-24T09:42:55;13.70;99.90
23744;DHT22;12052;53.478;10.182;2023-04-24T09:45:22;13.90;99.90
23744;DHT22;12052;53.478;10.182;2023-04-24T09:47:52;13.80;99.90
23744;DHT22;12052;53.478;10.182;2023-04-24T09:50:21;13.90;99.90
23744;DHT22;12052;53.478;10.182;2023-04-24T09:52:56;13.90;99.90
23744;DHT22;12052;53.478;10.182;2023-04-24T09:55:22;14.00;99.90
23744;DHT22;12052;53.478;10.182;2023-04-24T09:57:51;14.00;99.90
23744;DHT22;12052;53.478;10.182;2023-04-24T10:00:25;13.90;99.90
23744;DHT22;12052;53.478;10.182;2023-04-24T10:02:59;13.90;99.90
23744;DHT22;12052;53.478;10.182;2023-04-24T10:05:36;13.90;99.90
23744;DHT22;12052;53.478;10.182;2023-04-24T10:08:08;13.90;99.90
23744;DHT22;12052;53.478;10.182;2023-04-24T10:10:38;13.90;99.90
23744;DHT22;12052;53.478;10.182;2023-04-24T10:13:04;13.90;99.90
23744;DHT22;12052;53.478;10.182;2023-04-24T10:15:30;14.00;99.90
23744;DHT22;12052;53.478;10.182;2023-04-24T10:17:58;14.10;99.90
23744;DHT22;12052;53.478;10.182;2023-04-24T10:20:26;14.20;99.90
23744;DHT22;12052;53.478;10.182;2023-04-24T10:22:53;14.40;99.90
23744;DHT22;12052;53.478;10.182;2023-04-24T10:25:21;14.50;99.90
23744;DHT22;12052;53.478;10.182;2023-04-24T10:27:47;14.30;99.90
23744;DHT22;12052;53.478;10.182;2023-04-24T10:30:14;14.10;99.90
23744;DHT22;12052;53.478;10.182;2023-04-24T10:32:40;14.10;99.90
23744;DHT22;12052;53.478;10.182;2023-04-24T10:35:10;14.10;99.90
23744;DHT22;12052;53.478;10.182;2023-04-24T10:37:38;14.00;99.90
23744;DHT22;12052;53.478;10.182;2023-04-24T10:40:06;13.90;99.90
23744;DHT22;12052;53.478;10.182;2023-04-24T10:42:33;13.90;99.90
23744;DHT22;12052;53.478;10.182;2023-04-24T10:44:59;13.80;99.90
23744;DHT22;12052;53.478;10.182;2023-04-24T10:47:27;13.80;99.90
23744;DHT22;12052;53.478;10.182;2023-04-24T10:49:53;13.70;99.90
23744;DHT22;12052;53.478;10.182;2023-04-24T10:52:19;13.80;99.90
23744;DHT22;12052;53.478;10.182;2023-04-24T10:54:47;13.90;99.90
23744;DHT22;12052;53.478;10.182;2023-04-24T10:59:49;14.20;99.90
23744;DHT22;12052;53.478;10.182;2023-04-24T11:02:16;14.10;99.90
23744;DHT22;12052;53.478;10.182;2023-04-24T11:04:42;14.20;99.90
23744;DHT22;12052;53.478;10.182;2023-04-24T11:07:11;14.30;99.90
23744;DHT22;12052;53.478;10.182;2023-04-24T11:09:37;14.40;99.90
23744;DHT22;12052;53.478;10.182;2023-04-24T11:12:06;14.40;99.90
23744;DHT22;12052;53.478;10.182;2023-04-24T11:17:37;15.20;99.90
23744;DHT22;12052;53.478;10.182;2023-04-24T11:20:07;15.10;99.90
23744;DHT22;12052;53.478;10.182;2023-04-24T11:22:34;15.00;99.90
23744;DHT22;12052;53.478;10.182;2023-04-24T11:25:04;15.00;99.90
23744;DHT22;12052;53.478;10.182;2023-04-24T11:27:41;14.80;99.90
23744;DHT22;12052;53.478;10.182;2023-04-24T11:30:08;14.60;99.90
23744;DHT22;12052;53.478;10.182;2023-04-24T11:32:39;14.60;99.90
23744;DHT22;12052;53.478;10.182;2023-04-24T11:37:41;14.90;99.90
23744;DHT22;12052;53.478;10.182;2023-04-24T11:40:09;15.10;99.90
23744;DHT22;12052;53.478;10.182;2023-04-24T11:42:43;15.10;99.90
23744;DHT22;12052;53.478;10.182;2023-04-24T11:45:10;15.20;99.90
23744;DHT22;12052;53.478;10.182;2023-04-24T11:47:36;15.00;99.90
23744;DHT22;12052;53.478;10.182;2023-04-24T11:50:04;14.90;99.90
23744;DHT22;12052;53.478;10.182;2023-04-24T11:52:31;14.70;99.90
23744;DHT22;12052;53.478;10.182;2023-04-24T11:54:57;15.00;99.90
23744;DHT22;12052;53.478;10.182;2023-04-24T11:57:25;15.00;99.90
23744;DHT22;12052;53.478;10.182;2023-04-24T11:59:54;15.20;99.90
23744;DHT22;12052;53.478;10.182;2023-04-24T12:02:23;15.60;99.90
23744;DHT22;12052;53.478;10.182;2023-04-24T12:04:49;15.50;99.90
23744;DHT22;12052;53.478;10.182;2023-04-24T12:07:15;15.40;99.90
23744;DHT22;12052;53.478;10.182;2023-04-24T12:12:07;15.20;99.90
23744;DHT22;12052;53.478;10.182;2023-04-24T12:14:42;15.20;99.90
23744;DHT22;12052;53.478;10.182;2023-04-24T12:17:07;15.20;99.90
23744;DHT22;12052;53.478;10.182;2023-04-24T12:19:33;15.30;99.90
23744;DHT22;12052;53.478;10.182;2023-04-24T12:22:00;15.00;99.90
23744;DHT22;12052;53.478;10.182;2023-04-24T12:24:26;15.00;99.90
23744;DHT22;12052;53.478;10.182;2023-04-24T12:26:51;14.90;99.90
23744;DHT22;12052;53.478;10.182;2023-04-24T12:29:22;14.90;99.90
23744;DHT22;12052;53.478;10.182;2023-04-24T12:31:48;15.00;99.90
23744;DHT22;12052;53.478;10.182;2023-04-24T12:34:20;15.00;99.90
23744;DHT22;12052;53.478;10.182;2023-04-24T12:36:46;14.80;99.90
23744;DHT22;12052;53.478;10.182;2023-04-24T12:39:16;14.70;99.90
23744;DHT22;12052;53.478;10.182;2023-04-24T12:41:58;14.60;99.90
23744;DHT22;12052;53.478;10.182;2023-04-24T12:44:34;14.30;99.90
23744;DHT22;12052;53.478;10.182;2023-04-24T12:47:01;14.20;99.90
23744;DHT22;12052;53.478;10.182;2023-04-24T12:49:27;14.00;99.90
23744;DHT22;12052;53.478;10.182;2023-04-24T12:51:54;13.80;99.90
23744;DHT22;12052;53.478;10.182;2023-04-24T12:54:19;13.80;99.90
23744;DHT22;12052;53.478;10.182;2023-04-24T12:56:45;13.50;99.90
23744;DHT22;12052;53.478;10.182;2023-04-24T12:59:11;13.40;99.90
23744;DHT22;12052;53.478;10.182;2023-04-24T13:01:36;13.30;99.90
23744;DHT22;12052;53.478;10.182;2023-04-24T13:04:02;13.20;99.90
23744;DHT22;12052;53.478;10.182;2023-04-24T13:06:27;13.10;99.90
23744;DHT22;12052;53.478;10.182;2023-04-24T13:08:53;13.10;99.90
23744;DHT22;12052;53.478;10.182;2023-04-24T13:11:20;13.10;99.90
23744;DHT22;12052;53.478;10.182;2023-04-24T13:13:47;13.20;99.90
23744;DHT22;12052;53.478;10.182;2023-04-24T13:16:12;13.20;99.90
23744;DHT22;12052;53.478;10.182;2023-04-24T13:18:38;13.20;99.90
23744;DHT22;12052;53.478;10.182;2023-04-24T13:21:04;13.20;99.90
23744;DHT22;12052;53.478;10.182;2023-04-24T13:23:29;13.10;99.90
23744;DHT22;12052;53.478;10.182;2023-04-24T13:25:55;13.00;99.90
23744;DHT22;12052;53.478;10.182;2023-04-24T13:28:24;12.90;99.90
23744;DHT22;12052;53.478;10.182;2023-04-24T13:30:50;12.70;99.90
23744;DHT22;12052;53.478;10.182;2023-04-24T13:33:16;12.40;99.90
23744;DHT22;12052;53.478;10.182;2023-04-24T13:35:41;12.20;99.90
23744;DHT22;12052;53.478;10.182;2023-04-24T13:38:07;12.00;99.90
23744;DHT22;12052;53.478;10.182;2023-04-24T13:40:33;11.90;99.90
23744;DHT22;12052;53.478;10.182;2023-04-24T13:42:58;11.80;99.90
23744;DHT22;12052;53.478;10.182;2023-04-24T13:45:24;11.80;99.90
23744;DHT22;12052;53.478;10.182;2023-04-24T13:47:50;11.70;99.90
23744;DHT22;12052;53.478;10.182;2023-04-24T13:50:15;11.80;99.90
23744;DHT22;12052;53.478;10.182;2023-04-24T13:52:41;11.80;99.90
23744;DHT22;12052;53.478;10.182;2023-04-24T13:55:07;11.70;99.90
23744;DHT22;12052;53.478;10.182;2023-04-24T13:57:33;11.70;99.90
23744;DHT22;12052;53.478;10.182;2023-04-24T13:59:59;11.70;99.90
23744;DHT22;12052;53.478;10.182;2023-04-24T14:02:29;11.80;99.90
23744;DHT22;12052;53.478;10.182;2023-04-24T14:04:55;11.80;99.90
23744;DHT22;12052;53.478;10.182;2023-04-24T14:07:20;11.80;99.90
23744;DHT22;12052;53.478;10.182;2023-04-24T14:09:46;11.80;99.90
23744;DHT22;12052;53.478;10.182;2023-04-24T14:12:11;11.90;99.90
23744;DHT22;12052;53.478;10.182;2023-04-24T14:14:38;11.90;99.90
23744;DHT22;12052;53.478;10.182;2023-04-24T14:17:03;11.90;99.90
23744;DHT22;12052;53.478;10.182;2023-04-24T14:19:29;12.00;99.90
23744;DHT22;12052;53.478;10.182;2023-04-24T14:21:54;12.00;99.90
23744;DHT22;12052;53.478;10.182;2023-04-24T14:24:23;12.10;99.90
23744;DHT22;12052;53.478;10.182;2023-04-24T14:26:49;12.30;99.90
23744;DHT22;12052;53.478;10.182;2023-04-24T14:29:14;12.40;99.90
23744;DHT22;12052;53.478;10.182;2023-04-24T14:31:40;12.30;99.90
23744;DHT22;12052;53.478;10.182;2023-04-24T14:34:06;12.40;99.90
23744;DHT22;12052;53.478;10.182;2023-04-24T14:36:31;12.40;99.90
23744;DHT22;12052;53.478;10.182;2023-04-24T14:38:57;12.40;99.90
23744;DHT22;12052;53.478;10.182;2023-04-24T14:41:22;12.40;99.90
23744;DHT22;12052;53.478;10.182;2023-04-24T14:43:48;12.50;99.90
23744;DHT22;12052;53.478;10.182;2023-04-24T14:46:13;12.60;99.90
23744;DHT22;12052;53.478;10.182;2023-04-24T14:48:39;12.60;99.90
23744;DHT22;12052;53.478;10.182;2023-04-24T14:51:05;12.60;99.90
23744;DHT22;12052;53.478;10.182;2023-04-24T14:53:30;12.60;99.90
23744;DHT22;12052;53.478;10.182;2023-04-24T14:55:56;12.60;99.90
23744;DHT22;12052;53.478;10.182;2023-04-24T14:58:22;12.50;99.90
23744;DHT22;12052;53.478;10.182;2023-04-24T15:00:47;12.40;99.90
23744;DHT22;12052;53.478;10.182;2023-04-24T15:03:15;12.30;99.90
23744;DHT22;12052;53.478;10.182;2023-04-24T15:05:41;12.20;99.90
23744;DHT22;12052;53.478;10.182;2023-04-24T15:08:06;12.10;99.90
23744;DHT22;12052;53.478;10.182;2023-04-24T15:10:32;11.80;99.90
23744;DHT22;12052;53.478;10.182;2023-04-24T15:12:58;11.50;99.90
23744;DHT22;12052;53.478;10.182;2023-04-24T15:15:24;11.30;99.90
23744;DHT22;12052;53.478;10.182;2023-04-24T15:17:49;11.20;99.90
23744;DHT22;12052;53.478;10.182;2023-04-24T15:20:15;11.00;99.90
23744;DHT22;12052;53.478;10.182;2023-04-24T15:22:41;10.90;99.90